Latest Weather Observations for Wilsons Promontory

IDV60801

Issued at 10:32 am EDT Monday 27 February 2017 (issued every 30 minutes, with the page automatically refreshed every 10 minutes)

About weather observations | Map of weather stations | Latest weather observations for VIC | Other Formats
Station Details ID: 085096 Name: WILSONS PROMONTORY LIGHTHOUSE Lat: -39.13 Lon: 146.42 Height: 95.0 m
Data from the previous 72 hours. | See also: Recent months at Wilsons Promontory
Date/Time
EDT
Temp
°C
App
Temp
°C
Dew
Point
°C
Rel
Hum
%
Delta-T
°C
Wind Press
QNH
hPa
Press
MSL
hPa
Rain since
9am
mm
Dir  Spd
km/h
Gust
km/h
Spd
kts
Gust
kts
27/10:30am 20.4 16.4 15.2 72 3.1 NNE 30 35 16 19 1023.9 - 0.0
27/10:00am 20.1 16.1 15.1 73 2.9 NNE 30 37 16 20 1023.8 - 0.0
27/09:30am 19.5 14.7 14.7 74 2.8 NE 33 41 18 22 1023.7 - 0.0
27/09:00am 19.4 15.1 15.3 77 2.4 NE 32 39 17 21 1023.6 1023.4 0.0
27/08:30am 18.7 14.0 15.9 84 1.7 NE 35 41 19 22 1023.5 - 0.0
27/08:00am 17.9 12.6 15.3 85 1.5 NE 37 44 20 24 1023.2 - 0.0
27/07:30am 17.8 12.5 15.4 86 1.4 NE 37 46 20 25 1023.0 - 0.0
27/07:00am 17.8 11.5 15.6 87 1.3 NE 43 50 23 27 1022.6 - 0.0
27/06:30am 17.8 12.2 15.6 87 1.3 NE 39 48 21 26 1022.3 - 0.0
27/06:00am 17.7 11.3 15.5 87 1.3 NE 43 50 23 27 1022.1 1021.9 0.0
27/05:30am 17.7 11.6 15.3 86 1.4 NE 41 48 22 26 1022.1 - 0.0
27/05:00am 17.8 11.3 15.2 85 1.5 NE 43 52 23 28 1022.0 - 0.0
27/04:30am 17.6 11.0 14.9 84 1.6 NE 43 54 23 29 1021.9 - 0.0
27/04:00am 17.5 10.6 14.6 83 1.7 NE 44 57 24 31 1021.9 - 0.0
27/03:30am 17.6 10.4 14.7 83 1.7 NE 46 57 25 31 1022.0 - 0.0
27/03:00am 17.6 9.9 14.3 81 1.9 NE 48 59 26 32 1022.2 1022.0 0.0
27/02:30am 17.5 9.5 13.6 78 2.2 NE 48 59 26 32 1022.2 - 0.0
27/02:00am 17.4 9.5 13.7 79 2.1 NE 48 59 26 32 1022.3 - 0.0
27/01:30am 17.4 9.1 13.7 79 2.1 NE 50 59 27 32 1022.4 - 0.0
27/01:00am 17.4 8.5 13.1 76 2.4 NE 52 61 28 33 1022.7 - 0.0
27/12:30am 17.4 8.1 12.9 75 2.5 NE 54 63 29 34 1022.8 - 0.0
27/12:00am 17.5 8.8 12.6 73 2.7 NE 50 65 27 35 1023.0 1022.8 0.0
 
Date/Time
EDT
Temp
°C
App
Temp
°C
Dew
Point
°C
Rel
Hum
%
Delta-T
°C
Wind Press
QNH
hPa
Press
MSL
hPa
Rain since
9am
mm
Dir  Spd
km/h
Gust
km/h
Spd
kts
Gust
kts
26/11:30pm 17.5 7.6 12.4 72 2.8 NE 56 63 30 34 1023.1 - 0.0
26/11:00pm 17.6 7.8 12.7 73 2.7 NE 56 69 30 37 1023.2 - 0.0
26/10:30pm 17.6 8.6 12.9 74 2.6 NE 52 63 28 34 1023.4 - 0.0
26/10:00pm 17.6 7.9 13.1 75 2.5 NE 56 65 30 35 1023.3 - 0.0
26/09:30pm 17.4 8.8 12.9 75 2.5 NE 50 61 27 33 1023.4 - 0.0
26/09:00pm 17.5 9.2 12.6 73 2.7 NE 48 59 26 32 1023.3 1023.1 0.0
26/08:30pm 17.4 8.2 12.3 72 2.8 NE 52 63 28 34 1023.1 - 0.0
26/08:00pm 17.5 9.1 12.4 72 2.8 NE 48 57 26 31 1023.1 - 0.0
26/07:30pm 17.5 8.6 11.8 69 3.1 NE 50 61 27 33 1022.9 - 0.0
26/07:00pm 17.6 9.0 11.8 69 3.2 NE 48 57 26 31 1022.8 - 0.0
26/06:30pm 17.7 8.7 11.5 67 3.4 NE 50 59 27 32 1022.6 - 0.0
26/06:00pm 17.8 9.2 11.6 67 3.4 NE 48 61 26 33 1022.5 1022.3 0.0
26/05:30pm 18.0 9.7 11.3 65 3.7 NE 46 61 25 33 1022.3 - 0.0
26/05:00pm 18.0 9.2 11.1 64 3.8 NE 48 59 26 32 1022.3 - 0.0
26/04:30pm 18.2 9.9 11.5 65 3.7 NE 46 57 25 31 1022.5 - 0.0
26/04:00pm 18.3 9.2 11.1 63 3.9 NE 50 59 27 32 1022.5 - 0.0
26/03:30pm 18.4 9.9 11.9 66 3.6 NE 48 59 26 32 1022.7 - 0.0
26/03:00pm 18.5 9.4 11.3 63 3.9 NE 50 61 27 33 1023.0 1022.8 0.0
26/02:30pm 18.7 10.0 12.5 67 3.5 NE 50 57 27 31 1023.2 - 0.0
26/02:00pm 18.7 10.0 12.7 68 3.4 NE 50 59 27 32 1023.2 - 0.0
26/01:30pm 18.9 11.1 13.1 69 3.3 NE 46 57 25 31 1023.2 - 0.0
26/01:00pm 18.9 11.0 12.6 67 3.5 NE 46 56 25 30 1023.6 - 0.0
26/12:30pm 19.2 11.2 12.5 65 3.8 NE 46 56 25 30 1023.8 - 0.0
26/12:00pm 19.0 11.3 12.0 64 3.9 ENE 44 54 24 29 1024.0 1023.8 0.0
26/11:30am 19.1 11.0 13.1 68 3.4 ENE 48 54 26 29 1024.1 - 0.0
26/11:00am 19.0 11.1 12.7 67 3.5 NE 46 54 25 29 1024.2 - 0.0
26/10:30am 19.1 12.2 13.9 72 3.0 ENE 43 52 23 28 1024.2 - 0.0
26/10:00am 18.2 10.6 12.4 69 3.2 ENE 44 54 24 29 1024.3 - 0.0
26/09:30am 18.9 11.3 12.4 66 3.6 ENE 44 54 24 29 1024.1 - 0.0
26/09:00am 18.5 10.9 12.3 67 3.4 ENE 44 54 24 29 1024.0 1023.8 0.6
26/08:30am 18.1 9.6 11.9 67 3.4 ENE 48 57 26 31 1023.5 - 0.6
26/08:00am 17.7 9.4 12.6 72 2.8 ENE 48 57 26 31 1023.1 - 0.6
26/07:30am 17.3 8.5 12.2 72 2.8 ENE 50 59 27 32 1023.1 - 0.6
26/07:00am 17.0 7.6 11.5 70 3.0 ENE 52 63 28 34 1023.0 - 0.6
26/06:30am 17.0 8.6 12.3 74 2.6 ENE 48 59 26 32 1022.6 - 0.6
26/06:00am 16.9 8.2 12.4 75 2.5 ENE 50 61 27 33 1022.2 1022.0 0.6
26/05:30am 16.9 8.6 12.6 76 2.4 ENE 48 56 26 30 1022.3 - 0.6
26/05:00am 16.9 8.1 12.2 74 2.6 ENE 50 57 27 31 1022.3 - 0.6
26/04:30am 16.8 8.8 12.5 76 2.4 ENE 46 57 25 31 1022.2 - 0.6
26/04:00am 16.8 8.0 12.3 75 2.5 ENE 50 61 27 33 1022.0 - 0.6
26/03:30am 16.8 8.0 12.3 75 2.5 ENE 50 59 27 32 1022.2 - 0.6
26/03:00am 16.8 8.3 12.1 74 2.6 ENE 48 57 26 31 1022.8 1022.6 0.6
26/02:30am 16.9 8.5 12.2 74 2.6 ENE 48 57 26 31 1023.1 - 0.6
26/02:00am 16.8 7.9 11.9 73 2.7 ENE 50 61 27 33 1023.5 - 0.6
26/01:30am 16.8 8.0 12.1 74 2.6 ENE 50 56 27 30 1023.7 - 0.6
26/01:00am 16.9 8.0 12.0 73 2.7 ENE 50 57 27 31 1023.9 - 0.6
26/12:30am 17.0 8.2 12.3 74 2.6 ENE 50 59 27 32 1024.2 - 0.6
26/12:00am 17.0 8.2 12.3 74 2.6 ENE 50 59 27 32 1023.9 1023.7 0.6
 
Date/Time
EDT
Temp
°C
App
Temp
°C
Dew
Point
°C
Rel
Hum
%
Delta-T
°C
Wind Press
QNH
hPa
Press
MSL
hPa
Rain since
9am
mm
Dir  Spd
km/h
Gust
km/h
Spd
kts
Gust
kts
25/11:30pm 17.0 9.0 12.5 75 2.5 ENE 46 57 25 31 1024.2 - 0.6
25/11:00pm 16.9 7.6 12.0 73 2.7 ENE 52 59 28 32 1023.9 - 0.6
25/10:30pm 16.9 9.3 12.4 75 2.5 ENE 44 54 24 29 1024.2 - 0.6
25/10:00pm 16.7 8.7 12.3 75 2.4 ENE 46 57 25 31 1024.1 - 0.6
25/09:30pm 16.7 7.5 12.3 75 2.4 ENE 52 61 28 33 1023.9 - 0.6
25/09:00pm 16.5 6.9 12.1 75 2.4 ENE 54 65 29 35 1023.6 1023.4 0.6
25/08:30pm 16.4 7.4 12.9 80 2.0 ENE 52 61 28 33 1023.5 - 0.6
25/08:00pm 16.1 7.2 13.2 83 1.6 ENE 52 63 28 34 1023.4 - 0.6
25/07:30pm 15.9 6.2 13.0 83 1.6 ENE 56 67 30 36 1023.1 - 0.6
25/07:00pm 15.4 6.6 13.4 88 1.1 E 52 61 28 33 1023.3 - 0.6
25/06:30pm 15.1 6.6 13.3 89 1.0 E 50 61 27 33 1023.5 - 0.2
25/06:00pm 15.4 5.5 13.1 86 1.3 ENE 57 67 31 36 1022.8 1022.6 0.2
25/05:30pm 16.0 5.7 12.9 82 1.7 ENE 59 69 32 37 1022.8 - 0.2
25/05:00pm 15.9 6.7 13.4 85 1.4 E 54 67 29 36 1022.7 - 0.2
25/04:30pm 15.7 7.4 13.9 89 1.0 E 50 61 27 33 1022.8 - 0.2
25/04:00pm 15.1 5.3 13.3 89 1.0 E 57 63 31 34 1022.7 - 0.2
25/03:58pm 15.2 5.5 13.6 90 0.9 E 57 63 31 34 1022.8 - 0.2
25/03:30pm 14.8 9.3 13.5 92 0.7 E 35 50 19 27 1023.3 - 0.2
25/03:00pm 14.9 8.9 13.4 91 0.8 ENE 37 54 20 29 1023.2 1023.0 0.0
25/02:30pm 15.0 9.3 13.0 88 1.1 ENE 35 41 19 22 1023.6 - 0.0
25/02:00pm 16.1 11.3 12.8 81 1.8 E 30 41 16 22 1023.9 - 0.0
25/01:30pm 17.5 14.1 11.3 67 3.4 E 20 28 11 15 1024.3 - 0.0
25/01:00pm 17.5 14.4 10.4 63 3.8 E 17 20 9 11 1024.5 - 0.0
25/12:30pm 17.7 15.5 10.8 64 3.7 ESE 13 17 7 9 1024.7 - 0.0
25/12:00pm 17.5 15.1 9.9 61 4.0 ESE 13 15 7 8 1024.9 1024.8 0.0
25/11:30am 17.3 15.2 9.7 61 4.0 ESE 11 15 6 8 1024.8 - 0.0
25/11:00am 18.0 16.4 10.1 60 4.2 S 9 13 5 7 1024.8 - 0.0
25/10:30am 18.0 16.8 10.4 61 4.1 S 7 11 4 6 1024.8 - 0.0
25/10:00am 17.0 16.6 9.7 62 3.8 SW 2 11 1 6 1024.8 - 0.0
25/09:30am 17.2 16.2 10.3 64 3.7 WSW 6 9 3 5 1024.7 - 0.0
25/09:00am 16.7 16.3 9.6 63 3.7 SSW 2 - 1 - - 1024.3 0.0
25/08:30am 16.4 15.7 10.0 66 3.4 WSW 4 9 2 5 1024.2 - 0.0
25/08:00am 14.9 12.6 9.1 68 3.0 W 11 15 6 8 1024.1 - 0.0
25/07:30am 14.5 11.5 9.3 71 2.7 WNW 15 19 8 10 1023.8 - 0.0
25/07:00am 13.6 12.0 8.9 73 2.4 WNW 7 11 4 6 1023.6 - 0.0
25/06:30am 13.7 11.3 8.5 71 2.6 W 11 15 6 8 1023.5 - 0.0
25/06:00am 14.3 11.2 8.9 70 2.7 WSW 15 24 8 13 1023.3 1023.1 0.0
25/05:30am 14.5 10.5 9.1 70 2.8 WSW 20 24 11 13 1023.1 - 0.0
25/05:00am 14.4 11.7 9.0 70 2.8 SW 13 26 7 14 1023.0 - 0.0
25/04:30am 14.5 9.5 9.7 73 2.5 SW 26 32 14 17 1023.0 - 0.0
25/04:00am 14.7 11.0 10.1 74 2.4 SW 20 32 11 17 1023.0 - 0.0
25/03:30am 14.7 11.6 10.3 75 2.3 WSW 17 37 9 20 1023.0 - 0.0
25/03:00am 14.9 11.9 10.5 75 2.3 SW 17 33 9 18 1023.0 1022.8 0.0
25/02:30am 15.0 11.4 10.4 74 2.4 SW 20 37 11 20 1023.1 - 0.0
25/02:00am 15.1 8.6 10.5 74 2.4 WSW 35 41 19 22 1023.3 - 0.0
25/01:30am 15.1 9.0 10.3 73 2.5 SW 33 41 18 22 1023.5 - 0.0
25/01:00am 15.1 8.3 10.7 75 2.3 WSW 37 41 20 22 1023.6 - 0.0
25/12:30am 15.2 8.8 10.8 75 2.3 WSW 35 44 19 24 1023.6 - 0.0
25/12:00am 15.4 8.3 10.8 74 2.4 WSW 39 46 21 25 1023.8 1023.6 0.0
 
Date/Time
EDT
Temp
°C
App
Temp
°C
Dew
Point
°C
Rel
Hum
%
Delta-T
°C
Wind Press
QNH
hPa
Press
MSL
hPa
Rain since
9am
mm
Dir  Spd
km/h
Gust
km/h
Spd
kts
Gust
kts
24/11:30pm 15.4 7.6 11.2 76 2.3 WSW 43 48 23 26 1023.6 - 0.0
24/11:00pm 15.5 6.9 11.7 78 2.1 WSW 48 54 26 29 1023.6 - 0.0
24/10:30pm 15.7 9.3 11.9 78 2.1 WSW 37 52 20 28 1023.7 - 0.0
24/10:00pm 15.6 7.9 11.4 76 2.3 WSW 43 56 23 30 1023.6 - 0.0
24/09:30pm 15.8 6.6 10.8 72 2.7 WSW 50 57 27 31 1023.4 - 0.0
24/09:00pm 15.7 7.8 10.7 72 2.7 W 43 59 23 32 1023.2 1023.0 0.0
24/08:35pm 15.8 9.2 11.2 74 2.5 W 37 56 20 30 1023.0 - 0.0
24/08:30pm 15.8 9.2 11.4 75 2.4 W 37 52 20 28 1023.1 - 0.0
24/08:00pm 15.9 8.9 11.1 73 2.6 W 39 52 21 28 1022.7 - 0.0
24/07:37pm 16.1 8.1 10.6 70 2.9 W 43 61 23 33 1022.7 - 0.0
24/07:30pm 16.1 7.1 10.4 69 3.0 WSW 48 63 26 34 1022.5 - 0.0
24/07:05pm 16.4 8.9 10.7 69 3.0 W 41 59 22 32 1022.6 - 0.0
24/07:00pm 16.4 8.8 10.5 68 3.1 W 41 56 22 30 1022.4 - 0.0
24/06:30pm 16.6 8.5 10.7 68 3.2 W 44 57 24 31 1022.3 - 0.0
24/06:09pm 16.6 8.3 9.5 63 3.7 W 43 63 23 34 1022.2 - 0.0
24/06:00pm 16.8 9.4 9.7 63 3.7 W 39 56 21 30 1022.4 1022.2 0.0
24/05:30pm 17.0 10.0 9.9 63 3.8 W 37 54 20 29 1022.4 - 0.0
24/05:00pm 16.9 8.9 10.5 66 3.4 W 43 61 23 33 1022.3 - 0.0
24/04:59pm 16.9 8.9 10.5 66 3.4 W 43 61 23 33 1022.3 - 0.0
24/04:30pm 16.4 5.3 10.3 67 3.2 WSW 59 70 32 38 1022.0 - 0.0
24/04:27pm 16.3 4.4 10.2 67 3.2 WSW 63 70 34 38 1022.0 - 0.0
24/04:00pm 16.8 9.0 9.7 63 3.7 W 41 59 22 32 1022.4 - 0.0
24/03:30pm 16.9 8.6 9.3 61 4.0 W 43 61 23 33 1022.5 - 0.0
24/03:16pm 16.5 7.4 9.7 64 3.6 W 48 67 26 36 1022.6 - 0.0
24/03:09pm 16.2 4.6 9.6 65 3.5 WSW 61 67 33 36 1022.2 - 0.0
24/03:00pm 16.4 9.5 10.3 67 3.2 W 37 61 20 33 1022.6 1022.4 0.0
24/02:35pm 16.4 9.2 9.3 63 3.7 W 37 57 20 31 1022.8 - 0.0
24/02:30pm 16.7 10.1 9.9 64 3.6 W 35 46 19 25 1022.9 - 0.0
24/02:22pm 16.6 9.9 9.8 64 3.6 W 35 65 19 35 1022.8 - 0.0
24/02:00pm 16.3 5.2 8.8 61 3.9 WSW 57 65 31 35 1022.6 - 0.0
24/01:30pm 16.1 6.7 8.6 61 3.8 WSW 48 65 26 35 1022.4 - 0.0
24/01:00pm 15.5 4.9 9.8 69 3.0 WSW 56 67 30 36 1022.7 - 0.0
24/12:50pm 15.4 3.4 9.7 69 3.0 WSW 63 69 34 37 1022.6 - 0.0
24/12:40pm 16.1 8.6 9.5 65 3.4 W 39 57 21 31 1023.1 - 0.0
24/12:30pm 15.9 6.3 9.3 65 3.4 WSW 50 61 27 33 1023.0 - 0.0
24/12:19pm 15.9 5.0 9.6 66 3.3 WSW 57 63 31 34 1022.9 - 0.0
24/12:08pm 16.0 9.1 8.7 62 3.7 W 35 59 19 32 1023.2 - 0.0
24/12:00pm 16.3 10.0 8.8 61 3.8 W 32 46 17 25 1023.3 1023.1 0.0
24/11:30am 16.1 8.6 8.1 59 4.1 W 37 48 20 26 1023.4 - 0.0
24/11:00am 15.9 8.5 8.4 61 3.8 W 37 50 20 27 1023.4 - 0.0
24/10:34am 15.6 9.8 7.9 60 3.9 W 28 46 15 25 1023.4 - 0.0

Other Formats:

Comma delimited format used in spreadsheet applications
http://www.bom.gov.au/fwo/IDV60801/IDV60801.94893.axf

JavaScript Object Notation format (JSON) in row-major order
http://www.bom.gov.au/fwo/IDV60801/IDV60801.94893.json